Time;durP1;ratioP1;P1;durP2;ratioP2;P2;SDS_P1;SDS_P2;PMS_P1;PMS_P2;Temp;Humidity;BMP_temperature;BMP_pressure;BME280_temperature;BME280_humidity;BME280_pressure;Samples;Min_cycle;Max_cycle;Signal;HPM_P1;HPM_P2
2023/04/23 00:01:58;;;;;;;3.17;2.87;;;;;;;14.05;88.61;154969.03;4990887;28;20480;-77
2023/04/23 00:04:25;;;;;;;3.20;2.90;;;;;;;14.03;89.28;154963.84;4992560;28;20458;-78
2023/04/23 00:06:54;;;;;;;6.90;3.97;;;;;;;14.02;90.62;154961.25;4993570;28;20461;-78
2023/04/23 00:09:22;;;;;;;3.90;3.60;;;;;;;13.97;88.34;154949.56;4991860;28;20451;-78
2023/04/23 00:11:50;;;;;;;4.40;3.57;;;;;;;13.98;89.56;154950.81;5005125;28;20464;-78
2023/04/23 00:14:16;;;;;;;4.33;3.47;;;;;;;13.98;88.69;154952.13;4992089;28;20445;-78
2023/04/23 00:16:44;;;;;;;4.20;3.40;;;;;;;13.98;89.79;154952.13;4993373;28;20541;-78
2023/04/23 00:19:10;;;;;;;3.90;3.60;;;;;;;13.97;91.20;154948.25;4991721;28;20818;-78
2023/04/23 00:21:37;;;;;;;4.40;3.93;;;;;;;13.96;92.07;154945.66;4990903;28;20507;-78
2023/04/23 00:24:06;;;;;;;3.57;3.23;;;;;;;13.93;92.46;154937.84;4992110;28;20441;-78
2023/04/23 00:26:32;;;;;;;4.27;3.60;;;;;;;13.92;94.47;154935.28;4992888;28;21096;-78
2023/04/23 00:28:59;;;;;;;4.70;4.30;;;;;;;13.90;95.18;154930.06;4993666;28;20903;-78
2023/04/23 00:31:26;;;;;;;4.10;3.40;;;;;;;13.87;94.32;154922.31;5000856;28;20811;-78
2023/04/23 00:33:52;;;;;;;4.03;3.63;;;;;;;13.88;96.15;154926.19;4991921;28;20489;-78
2023/04/23 00:36:19;;;;;;;4.13;3.20;;;;;;;13.85;94.85;154917.06;4995226;28;20832;-78
2023/04/23 00:38:46;;;;;;;4.40;3.60;;;;;;;13.81;94.52;154906.72;4989520;28;20458;-78
2023/04/23 00:41:15;;;;;;;5.60;3.53;;;;;;;13.78;95.00;154898.91;4975130;28;20492;-78
2023/04/23 00:43:42;;;;;;;4.30;3.50;;;;;;;13.77;96.40;154896.31;4980283;28;20508;-78
2023/04/23 00:46:10;;;;;;;3.43;3.13;;;;;;;13.78;97.51;154898.91;4992093;28;20461;-78
2023/04/23 00:48:37;;;;;;;4.13;3.53;;;;;;;13.70;96.20;154879.47;5005250;28;20472;-78
2023/04/23 00:51:05;;;;;;;4.03;3.57;;;;;;;13.71;97.24;154880.78;4990252;28;20465;-78
2023/04/23 00:53:32;;;;;;;4.63;4.17;;;;;;;13.70;98.04;154878.16;4991448;28;20442;-78
2023/04/23 00:56:00;;;;;;;4.00;3.40;;;;;;;13.70;100.00;154878.16;4988530;28;20584;-78
2023/04/23 00:58:28;;;;;;;4.70;3.60;;;;;;;13.66;100.00;154867.78;4992305;28;20476;-78
2023/04/23 01:00:55;;;;;;;5.77;3.63;;;;;;;13.60;99.88;154852.22;4991194;28;20983;-78
2023/04/23 01:03:23;;;;;;;5.33;3.90;;;;;;;13.59;100.00;154849.59;4991917;28;20983;-78
2023/04/23 01:05:50;;;;;;;7.20;3.37;;;;;;;13.54;100.00;154836.63;4973502;28;20460;-78
2023/04/23 01:08:17;;;;;;;5.60;3.50;;;;;;;13.57;100.00;154844.41;5000063;28;20543;-78
2023/04/23 01:10:44;;;;;;;4.23;3.33;;;;;;;13.52;100.00;154831.44;4990991;28;20452;-78
2023/04/23 01:13:12;;;;;;;5.57;3.30;;;;;;;13.47;100.00;154818.47;4992073;28;20450;-78
2023/04/23 01:15:40;;;;;;;5.70;4.03;;;;;;;13.47;100.00;154818.47;4988839;28;20460;-78
2023/04/23 01:18:14;;;;;;;3.30;3.00;;;;;;;13.42;100.00;154806.81;4990695;28;20446;-78
2023/04/23 01:20:42;;;;;;;5.30;3.67;;;;;;;13.42;100.00;154808.06;4992076;28;20457;-77
2023/04/23 01:23:10;;;;;;;3.43;2.83;;;;;;;13.39;100.00;154800.31;4990691;28;20469;-77
2023/04/23 01:25:37;;;;;;;4.07;2.83;;;;;;;13.34;100.00;154786.03;5006554;28;20449;-86
2023/04/23 01:28:05;;;;;;;7.30;2.87;;;;;;;13.34;100.00;154787.28;4990817;28;20445;-85
2023/04/23 01:30:32;;;;;;;3.37;2.90;;;;;;;13.25;100.00;154763.97;4993033;28;20455;-86
2023/04/23 01:33:02;;;;;;;4.00;3.00;;;;;;;13.30;100.00;154775.63;4988556;28;20536;-85
2023/04/23 01:35:29;;;;;;;3.10;2.70;;;;;;;13.32;100.00;154780.81;4975907;28;20462;-86
2023/04/23 01:37:56;;;;;;;3.40;2.63;;;;;;;13.32;100.00;154782.13;4975117;28;20445;-86
2023/04/23 01:40:24;;;;;;;3.40;2.90;;;;;;;13.29;100.00;154774.31;4991427;28;20475;-85
2023/04/23 01:42:50;;;;;;;3.07;2.77;;;;;;;13.23;100.00;154758.78;4992585;28;20500;-86
2023/04/23 01:45:18;;;;;;;3.27;2.97;;;;;;;13.19;100.00;154748.38;4975185;28;20880;-86
2023/04/23 01:47:45;;;;;;;3.20;2.90;;;;;;;13.20;100.00;154751.00;4992761;28;20452;-76
2023/04/23 01:50:11;;;;;;;3.20;2.67;;;;;;;13.20;100.00;154749.69;4990367;28;20467;-77
2023/04/23 01:52:39;;;;;;;3.30;3.00;;;;;;;13.17;100.00;154743.22;4988426;28;20453;-77
2023/04/23 01:55:06;;;;;;;5.90;3.00;;;;;;;13.19;100.00;154747.06;4989224;28;20488;-76
2023/04/23 01:57:34;;;;;;;3.97;3.27;;;;;;;13.14;100.00;154735.41;4970009;28;20489;-77
2023/04/23 02:00:06;;;;;;;3.80;2.90;;;;;;;13.15;100.00;154738.03;4988660;28;20936;-78
2023/04/23 02:02:40;;;;;;;4.00;2.83;;;;;;;13.20;100.00;154751.00;5000047;28;20490;-78
2023/04/23 02:05:10;;;;;;;4.00;2.90;;;;;;;13.12;100.00;154730.22;4973045;28;21003;-78
2023/04/23 02:07:37;;;;;;;3.60;3.30;;;;;;;13.12;100.00;154728.94;4987215;28;20928;-78
2023/04/23 02:10:05;;;;;;;3.73;2.70;;;;;;;13.12;100.00;154728.94;4972922;28;20624;-78
2023/04/23 02:12:31;;;;;;;3.77;3.37;;;;;;;13.10;100.00;154725.06;4972151;28;20829;-78
2023/04/23 02:15:00;;;;;;;3.30;3.00;;;;;;;13.07;100.00;154717.25;4987633;28;20472;-78
2023/04/23 02:17:28;;;;;;;3.00;2.70;;;;;;;13.06;100.00;154714.59;4998334;28;20467;-78
2023/04/23 02:19:54;;;;;;;3.63;2.50;;;;;;;13.03;100.00;154706.81;4970328;28;20465;-78
2023/04/23 02:22:23;;;;;;;4.13;3.00;;;;;;;13.04;100.00;154709.44;5005554;28;20484;-78
2023/04/23 02:24:50;;;;;;;4.17;3.00;;;;;;;13.04;100.00;154709.44;4973336;28;20522;-78
2023/04/23 02:27:18;;;;;;;3.40;2.90;;;;;;;13.01;100.00;154700.31;4988898;28;20463;-78
2023/04/23 02:30:07;;;;;;;2.97;2.67;;;;;;;13.00;100.00;154699.03;4972985;28;20524;-78
2023/04/23 02:32:33;;;;;;;3.43;3.10;;;;;;;13.02;100.00;154704.25;4988807;28;20448;-78
2023/04/23 02:35:00;;;;;;;3.20;2.90;;;;;;;13.01;100.00;154700.31;4988417;28;20519;-78
2023/04/23 02:37:27;;;;;;;4.77;3.70;;;;;;;12.95;100.00;154686.06;4988075;28;20486;-78
2023/04/23 02:39:54;;;;;;;3.10;2.80;;;;;;;12.93;100.00;154680.88;4990452;28;20459;-78
2023/04/23 02:42:21;;;;;;;3.33;3.03;;;;;;;12.88;100.00;154667.91;4989260;28;20806;-78
2023/04/23 02:44:47;;;;;;;3.33;2.70;;;;;;;12.88;100.00;154667.91;4988903;28;20444;-78
2023/04/23 02:47:16;;;;;;;4.10;3.60;;;;;;;12.87;100.00;154665.28;4987360;28;20448;-78
2023/04/23 02:49:42;;;;;;;4.17;3.07;;;;;;;12.84;100.00;154658.81;4990493;28;20554;-78
2023/04/23 02:52:09;;;;;;;3.43;3.00;;;;;;;12.79;100.00;154644.53;4973349;28;20508;-78
2023/04/23 02:54:36;;;;;;;3.10;2.77;;;;;;;12.75;100.00;154634.19;4971233;28;20616;-78
2023/04/23 02:57:03;;;;;;;3.07;2.63;;;;;;;12.74;100.00;154631.56;4988916;28;20461;-78
2023/04/23 02:59:30;;;;;;;3.53;3.23;;;;;;;12.71;100.00;154625.09;4971564;28;20463;-78
2023/04/23 03:01:56;;;;;;;2.30;2.10;;;;;;;12.68;100.00;154617.31;4972319;28;20509;-78
2023/04/23 03:04:24;;;;;;;3.80;3.00;;;;;;;12.67;100.00;154613.44;4969864;28;20530;-78
2023/04/23 03:06:51;;;;;;;2.70;2.47;;;;;;;12.64;100.00;154605.66;4972193;28;20449;-78
2023/04/23 03:09:17;;;;;;;2.90;2.70;;;;;;;12.62;100.00;154600.47;4985682;28;20489;-78
2023/04/23 03:11:44;;;;;;;2.60;2.40;;;;;;;12.61;100.00;154599.16;4987157;28;20568;-78
2023/04/23 03:14:13;;;;;;;2.77;2.47;;;;;;;12.59;100.00;154592.69;4971840;28;20505;-78
2023/04/23 03:16:39;;;;;;;2.57;2.30;;;;;;;12.62;100.00;154601.78;4971900;28;20454;-78
2023/04/23 03:19:06;;;;;;;3.00;2.60;;;;;;;12.59;100.00;154594.00;4999599;28;20464;-78
2023/04/23 03:21:34;;;;;;;3.80;3.03;;;;;;;12.61;100.00;154597.84;4989179;28;20463;-78
2023/04/23 03:24:01;;;;;;;3.10;2.40;;;;;;;12.59;100.00;154594.00;5001094;28;20474;-78
2023/04/23 03:26:28;;;;;;;3.60;3.20;;;;;;;12.53;100.00;154578.41;4990160;28;20455;-78
2023/04/23 03:28:54;;;;;;;2.53;2.33;;;;;;;12.47;100.00;154561.59;4971647;28;20452;-78
2023/04/23 03:31:21;;;;;;;2.40;2.20;;;;;;;12.51;100.00;154571.94;4971851;28;20591;-78
2023/04/23 03:33:47;;;;;;;2.77;2.50;;;;;;;12.49;100.00;154566.75;5002983;28;20463;-78
2023/04/23 03:36:19;;;;;;;2.63;2.37;;;;;;;12.49;100.00;154566.75;4971709;28;20470;-78
2023/04/23 03:38:48;;;;;;;2.90;2.40;;;;;;;12.43;100.00;154551.19;4971619;28;20491;-78
2023/04/23 03:41:17;;;;;;;4.40;2.67;;;;;;;12.45;100.00;154557.66;4986200;28;20478;-78
2023/04/23 03:43:44;;;;;;;3.20;2.27;;;;;;;12.45;100.00;154556.34;4988320;28;20592;-78
2023/04/23 03:46:20;;;;;;;2.37;2.17;;;;;;;12.40;100.00;154544.69;4971547;28;20569;-78
2023/04/23 03:48:47;;;;;;;2.77;2.50;;;;;;;12.35;100.00;154531.75;4969803;28;20469;-78
2023/04/23 03:51:21;;;;;;;3.23;2.77;;;;;;;12.33;100.00;154525.25;4985292;28;20465;-78
2023/04/23 03:53:50;;;;;;;3.00;2.17;;;;;;;12.30;100.00;154517.47;4971721;28;20559;-77
2023/04/23 03:56:34;;;;;;;4.00;3.37;;;;;;;12.30;100.00;154518.78;4970895;28;20499;-78
2023/04/23 03:59:14;;;;;;;3.40;2.47;;;;;;;12.27;100.00;154511.00;4970188;28;20791;-78
2023/04/23 04:01:42;;;;;;;2.80;2.10;;;;;;;12.23;100.00;154500.66;4969724;28;21065;-78
2023/04/23 04:04:09;;;;;;;3.10;2.80;;;;;;;12.22;100.00;154498.03;4990769;28;20487;-78
2023/04/23 04:06:36;;;;;;;3.03;2.70;;;;;;;12.21;100.00;154495.41;4977305;28;20457;-78
2023/04/23 04:09:03;;;;;;;3.50;2.53;;;;;;;12.20;100.00;154494.13;4987169;28;20971;-78
2023/04/23 04:11:30;;;;;;;2.37;1.93;;;;;;;12.15;100.00;154481.16;4987085;28;20468;-78
2023/04/23 04:13:57;;;;;;;2.60;2.30;;;;;;;12.17;100.00;154485.06;4972033;28;20446;-77
2023/04/23 04:16:23;;;;;;;2.83;2.20;;;;;;;12.16;100.00;154482.47;4987248;28;20472;-78
2023/04/23 04:19:03;;;;;;;2.50;2.30;;;;;;;12.12;100.00;154473.41;4988862;28;20462;-78
2023/04/23 04:21:43;;;;;;;2.70;2.10;;;;;;;12.13;100.00;154475.97;4971355;28;20474;-78
2023/04/23 04:24:11;;;;;;;2.97;2.50;;;;;;;12.08;100.00;154463.03;4989676;28;21080;-78
2023/04/23 04:26:38;;;;;;;6.13;2.27;;;;;;;12.05;100.00;154455.25;4994169;28;20461;-78
2023/04/23 04:29:05;;;;;;;3.00;2.70;;;;;;;12.05;100.00;154455.25;4986891;28;20488;-78
2023/04/23 04:31:32;;;;;;;2.50;2.13;;;;;;;12.07;100.00;154460.41;4990616;28;21056;-77
2023/04/23 04:33:58;;;;;;;3.40;2.47;;;;;;;12.09;100.00;154465.63;4995276;28;20460;-78
2023/04/23 04:36:26;;;;;;;2.90;2.60;;;;;;;12.05;100.00;154455.25;4991429;28;20445;-78
2023/04/23 04:38:54;;;;;;;3.00;2.50;;;;;;;12.00;100.00;154442.28;4998931;28;20453;-78
2023/04/23 04:41:24;;;;;;;2.40;2.03;;;;;;;11.97;100.00;154433.19;4978963;28;20461;-78
2023/04/23 04:43:51;;;;;;;3.77;2.40;;;;;;;11.92;100.00;154421.53;4991413;28;20482;-78
2023/04/23 04:46:27;;;;;;;4.47;2.83;;;;;;;11.88;100.00;154411.19;4974980;28;20842;-78
2023/04/23 04:49:08;;;;;;;2.60;2.37;;;;;;;11.85;100.00;154403.41;4985831;28;20939;-77
2023/04/23 04:51:36;;;;;;;2.43;2.20;;;;;;;11.84;100.00;154399.50;5005318;28;20871;-78
2023/04/23 04:54:03;;;;;;;3.73;2.50;;;;;;;11.79;100.00;154387.84;4992203;28;20444;-78
2023/04/23 04:56:31;;;;;;;2.60;2.20;;;;;;;11.80;100.00;154390.44;5004249;28;20511;-78
2023/04/23 04:58:57;;;;;;;3.17;2.87;;;;;;;11.84;100.00;154400.78;5005842;28;20781;-78
2023/04/23 05:01:25;;;;;;;3.20;2.90;;;;;;;11.82;100.00;154395.63;4988532;28;20470;-78
2023/04/23 05:03:52;;;;;;;4.73;2.53;;;;;;;11.77;100.00;154382.66;5005114;28;20548;-78
2023/04/23 05:06:19;;;;;;;2.90;2.30;;;;;;;11.82;100.00;154395.63;4991092;28;20456;-78
2023/04/23 05:08:47;;;;;;;3.20;2.90;;;;;;;11.80;100.00;154389.16;4989458;28;20449;-78
2023/04/23 05:11:13;;;;;;;3.07;2.40;;;;;;;11.80;100.00;154390.44;4985931;28;20455;-78
2023/04/23 05:13:44;;;;;;;2.90;2.50;;;;;;;11.79;100.00;154386.53;4988011;28;20454;-78
2023/04/23 05:16:11;;;;;;;2.30;2.10;;;;;;;11.84;100.00;154399.50;4987727;28;20468;-78
2023/04/23 05:18:38;;;;;;;3.20;2.30;;;;;;;11.88;100.00;154411.19;4971195;28;20459;-78
2023/04/23 05:21:21;;;;;;;4.83;2.97;;;;;;;11.95;100.00;154428.00;4987840;28;20484;-79
2023/04/23 05:23:48;;;;;;;2.70;2.20;;;;;;;12.04;100.00;154452.69;5000199;28;20473;-77
2023/04/23 05:26:15;;;;;;;2.43;2.10;;;;;;;12.05;100.00;154455.25;5003153;28;20461;-77
2023/04/23 05:28:43;;;;;;;2.23;2.00;;;;;;;12.10;100.00;154468.19;4987051;28;23446;-76
2023/04/23 05:31:10;;;;;;;2.40;2.00;;;;;;;12.10;100.00;154468.19;4989727;28;20454;-77
2023/04/23 05:33:36;;;;;;;2.43;2.23;;;;;;;12.14;100.00;154478.59;4989427;28;20448;-77
2023/04/23 05:36:03;;;;;;;2.70;2.20;;;;;;;12.24;100.00;154503.19;4984850;28;20486;-78
2023/04/23 05:38:30;;;;;;;2.63;1.80;;;;;;;12.43;100.00;154551.19;4999598;28;20471;-78
2023/04/23 05:40:57;;;;;;;2.10;1.77;;;;;;;12.49;100.00;154568.06;4987989;28;20471;-78
2023/04/23 05:43:25;;;;;;;2.90;1.90;;;;;;;12.49;100.00;154566.75;4987185;28;20484;-78
2023/04/23 05:45:55;;;;;;;2.37;1.93;;;;;;;12.54;100.00;154581.03;4989521;28;20498;-77
2023/04/23 05:48:22;;;;;;;2.40;1.73;;;;;;;12.50;100.00;154569.31;4987535;28;20496;-77
2023/04/23 05:50:49;;;;;;;2.10;1.77;;;;;;;12.46;100.00;154558.97;4987211;28;20471;-78
2023/04/23 05:53:15;;;;;;;2.40;1.80;;;;;;;12.56;100.00;154584.91;4987548;28;21264;-78
2023/04/23 05:55:42;;;;;;;2.53;1.40;;;;;;;12.75;100.00;154634.19;4985559;28;20494;-77
2023/04/23 05:58:08;;;;;;;1.70;1.47;;;;;;;12.80;100.00;154648.47;4986893;28;20492;-77
2023/04/23 06:00:36;;;;;;;2.10;1.57;;;;;;;12.86;100.00;154661.44;4988507;28;20559;-77
2023/04/23 06:03:04;;;;;;;1.80;1.50;;;;;;;12.91;100.00;154675.69;4989691;28;20480;-77
2023/04/23 06:05:30;;;;;;;2.60;1.20;;;;;;;12.91;100.00;154675.69;4986917;28;20553;-77
2023/04/23 06:07:57;;;;;;;1.30;1.20;;;;;;;12.91;100.00;154674.41;4986194;28;21026;-78
2023/04/23 06:10:24;;;;;;;1.47;1.17;;;;;;;12.95;100.00;154686.06;4985514;28;20461;-78
2023/04/23 06:12:53;;;;;;;2.90;1.10;;;;;;;13.03;100.00;154706.81;4985571;28;20470;-77
2023/04/23 06:15:19;;;;;;;5.40;1.27;;;;;;;13.04;100.00;154709.44;4984554;28;20464;-77
2023/04/23 06:17:46;;;;;;;1.53;1.10;;;;;;;13.08;100.00;154718.56;4987289;28;21011;-77
2023/04/23 06:20:14;;;;;;;2.43;1.50;;;;;;;13.06;100.00;154714.59;4987161;28;21317;-77
2023/04/23 06:22:52;;;;;;;2.50;1.50;;;;;;;13.05;100.00;154712.00;4982757;28;20544;-77
2023/04/23 06:25:18;;;;;;;1.60;1.37;;;;;;;13.08;100.00;154718.56;4999507;28;20493;-78
2023/04/23 06:27:46;;;;;;;1.50;1.20;;;;;;;13.08;100.00;154719.81;4987456;28;21096;-77
2023/04/23 06:30:19;;;;;;;2.53;1.20;;;;;;;13.04;100.00;154709.44;5000744;28;20947;-78
2023/04/23 06:32:46;;;;;;;1.40;1.00;;;;;;;13.03;100.00;154705.50;4987336;28;20457;-77
2023/04/23 06:35:14;;;;;;;1.80;0.93;;;;;;;13.05;100.00;154712.00;4987347;28;20854;-77
2023/04/23 06:37:41;;;;;;;1.37;0.97;;;;;;;13.02;100.00;154704.25;4984560;28;20473;-78
2023/04/23 06:40:08;;;;;;;7.10;1.37;;;;;;;13.03;100.00;154706.81;4986421;28;20497;-78
2023/04/23 06:42:34;;;;;;;1.90;1.40;;;;;;;13.11;100.00;154726.31;4986195;28;20921;-77
2023/04/23 06:45:17;;;;;;;1.50;1.13;;;;;;;13.17;100.00;154743.22;4987156;28;20499;-78
2023/04/23 06:47:44;;;;;;;1.50;1.07;;;;;;;13.43;100.00;154809.38;4990398;28;20818;-78
2023/04/23 06:50:11;;;;;;;1.60;1.10;;;;;;;13.77;100.00;154896.31;4986001;28;20465;-77
2023/04/23 06:52:39;;;;;;;2.40;1.20;;;;;;;14.07;100.00;154974.22;4987518;28;20453;-77
2023/04/23 06:55:07;;;;;;;1.50;1.30;;;;;;;14.44;100.00;155069.06;4987382;28;20869;-77
2023/04/23 06:57:33;;;;;;;1.33;0.80;;;;;;;14.82;100.00;155167.78;4987179;28;20453;-77
2023/04/23 07:00:00;;;;;;;3.30;1.47;;;;;;;15.16;100.00;155254.81;4986573;28;20473;-77
2023/04/23 07:02:32;;;;;;;2.50;0.97;;;;;;;15.39;95.95;155314.59;4979346;28;20457;-77
2023/04/23 07:04:59;;;;;;;2.23;1.20;;;;;;;15.65;96.45;155382.22;4987891;28;20544;-78
2023/04/23 07:07:25;;;;;;;1.10;0.70;;;;;;;15.76;89.91;155410.84;4986264;28;20562;-78
2023/04/23 07:09:53;;;;;;;1.43;1.03;;;;;;;15.91;86.76;155448.56;5002170;28;20457;-78
2023/04/23 07:12:20;;;;;;;2.00;1.40;;;;;;;16.04;88.62;155481.06;4985091;28;20462;-78
2023/04/23 07:14:47;;;;;;;1.60;1.07;;;;;;;16.11;84.68;155499.25;4988268;28;21035;-78
2023/04/23 07:17:13;;;;;;;2.20;0.93;;;;;;;16.12;88.17;155503.16;4988125;28;20455;-78
2023/04/23 07:19:41;;;;;;;1.20;0.90;;;;;;;16.11;85.34;155499.25;4984199;28;20451;-78
2023/04/23 07:22:07;;;;;;;1.60;1.10;;;;;;;16.12;90.90;155503.16;4987571;28;20462;-78
2023/04/23 07:24:34;;;;;;;1.43;1.00;;;;;;;16.06;88.70;155486.25;4987261;28;20468;-78
2023/04/23 07:27:02;;;;;;;1.40;1.13;;;;;;;16.05;89.41;155484.94;5001924;28;20583;-77
2023/04/23 07:29:29;;;;;;;1.40;1.00;;;;;;;16.14;88.25;155507.06;4986891;28;20866;-77
2023/04/23 07:31:56;;;;;;;1.57;1.00;;;;;;;16.27;89.82;155540.84;4987122;28;20475;-79
2023/04/23 07:34:22;;;;;;;1.93;1.10;;;;;;;16.42;90.48;155579.88;4977921;28;20523;-79
2023/04/23 07:36:49;;;;;;;1.60;1.20;;;;;;;16.58;90.06;155621.53;4985134;28;20812;-79
2023/04/23 07:39:15;;;;;;;1.77;0.93;;;;;;;16.67;86.34;155644.97;4986056;28;20801;-78
2023/04/23 07:41:42;;;;;;;1.63;1.30;;;;;;;16.73;83.62;155659.28;4985000;28;20461;-79
2023/04/23 07:44:10;;;;;;;1.67;0.97;;;;;;;16.69;83.50;155650.16;4986572;28;20980;-77
2023/04/23 07:46:36;;;;;;;1.43;0.90;;;;;;;16.60;85.83;155626.72;4983542;28;20877;-77
2023/04/23 07:49:03;;;;;;;1.30;0.90;;;;;;;16.49;83.38;155598.09;4984396;28;20467;-78
2023/04/23 07:51:30;;;;;;;1.40;1.10;;;;;;;16.40;90.23;155574.66;4988626;28;20508;-77
2023/04/23 07:53:57;;;;;;;2.43;1.40;;;;;;;16.23;87.60;155530.47;4987244;28;20958;-77
2023/04/23 07:56:24;;;;;;;2.80;1.50;;;;;;;16.15;86.49;155509.66;4986640;28;20622;-78
2023/04/23 07:58:52;;;;;;;1.87;1.40;;;;;;;16.09;82.57;155495.38;4988651;28;20454;-78
2023/04/23 08:01:20;;;;;;;2.00;1.50;;;;;;;16.02;88.84;155477.13;4993781;28;20473;-77
2023/04/23 08:03:47;;;;;;;2.40;1.50;;;;;;;15.98;82.29;155465.44;4986157;28;20511;-78
2023/04/23 08:06:13;;;;;;;1.70;1.30;;;;;;;16.27;82.91;155540.84;4990293;28;20948;-78
2023/04/23 08:08:40;;;;;;;2.00;1.63;;;;;;;16.54;78.09;155611.16;4994080;28;20477;-77
2023/04/23 08:11:07;;;;;;;1.67;1.20;;;;;;;16.84;77.78;155689.19;4989181;28;20460;-78
2023/04/23 08:13:33;;;;;;;2.10;1.50;;;;;;;16.96;73.92;155719.13;4987110;28;20456;-78
2023/04/23 08:16:00;;;;;;;2.63;1.50;;;;;;;17.11;75.88;155756.84;4987675;28;20839;-78
2023/04/23 08:18:28;;;;;;;1.60;1.30;;;;;;;17.35;77.13;155819.31;4989666;28;20488;-78
2023/04/23 08:20:56;;;;;;;1.50;1.30;;;;;;;17.62;79.87;155890.97;4987985;28;20458;-78
2023/04/23 08:23:22;;;;;;;3.20;1.53;;;;;;;17.67;71.07;155902.69;5004020;28;21036;-78
2023/04/23 08:26:01;;;;;;;1.67;1.30;;;;;;;17.69;71.45;155907.88;4973375;28;20489;-78
2023/04/23 08:28:27;;;;;;;1.80;1.10;;;;;;;17.57;72.29;155876.66;4985735;28;20991;-78
2023/04/23 08:30:54;;;;;;;1.50;1.20;;;;;;;17.55;71.54;155871.47;4984591;28;20805;-78
2023/04/23 08:33:20;;;;;;;1.40;1.10;;;;;;;17.28;71.08;155802.41;4988416;28;20445;-78
2023/04/23 08:35:48;;;;;;;2.17;1.40;;;;;;;17.33;79.09;155814.13;4989630;28;20957;-78
2023/04/23 08:38:15;;;;;;;1.73;1.33;;;;;;;17.35;78.34;155819.31;4990802;28;20457;-77
2023/04/23 08:40:42;;;;;;;2.00;1.40;;;;;;;17.26;72.30;155795.91;4987243;28;20525;-78
2023/04/23 08:43:13;;;;;;;1.40;1.23;;;;;;;17.26;72.97;155795.91;5001412;28;20441;-77
2023/04/23 08:45:41;;;;;;;3.83;1.70;;;;;;;17.33;76.89;155814.13;4998327;28;20489;-78
2023/04/23 08:48:09;;;;;;;2.10;1.90;;;;;;;17.39;82.90;155829.75;4986909;28;20504;-78
2023/04/23 08:50:37;;;;;;;2.00;1.80;;;;;;;17.45;77.84;155845.34;4987482;28;20883;-77
2023/04/23 08:53:06;;;;;;;1.97;1.57;;;;;;;17.45;76.34;155845.34;4995120;28;21118;-77
2023/04/23 08:55:33;;;;;;;3.10;1.40;;;;;;;17.43;70.77;155840.13;4989571;28;20489;-77
2023/04/23 08:58:01;;;;;;;2.47;1.30;;;;;;;17.45;72.04;155846.63;4985470;28;20466;-77
2023/04/23 09:00:29;;;;;;;1.73;1.47;;;;;;;17.42;70.37;155837.56;4983096;28;20449;-78
2023/04/23 09:02:56;;;;;;;4.10;1.60;;;;;;;17.47;78.77;155850.56;4990549;28;20449;-77
2023/04/23 09:05:23;;;;;;;2.57;1.50;;;;;;;17.47;74.61;155850.56;4988252;28;20469;-78
2023/04/23 09:07:49;;;;;;;2.30;1.27;;;;;;;17.53;77.05;155867.53;4986895;28;20462;-77
2023/04/23 09:10:17;;;;;;;1.90;1.37;;;;;;;17.58;76.35;155880.53;4973618;28;20469;-78
2023/04/23 09:12:45;;;;;;;3.30;1.30;;;;;;;17.67;75.82;155902.69;4990296;28;20453;-78
2023/04/23 09:15:13;;;;;;;1.30;1.13;;;;;;;17.58;67.11;155879.22;4982421;28;20448;-77
2023/04/23 09:17:43;;;;;;;1.90;1.10;;;;;;;17.69;68.26;155907.88;4983392;28;20457;-77
2023/04/23 09:20:11;;;;;;;1.83;1.20;;;;;;;17.80;75.02;155936.53;5000236;28;20484;-77
2023/04/23 09:22:39;;;;;;;1.40;1.10;;;;;;;17.87;74.18;155954.72;4987961;28;20465;-77
2023/04/23 09:25:07;;;;;;;2.00;1.40;;;;;;;17.93;75.36;155970.38;4982645;28;20488;-77
2023/04/23 09:27:38;;;;;;;1.40;1.00;;;;;;;17.91;69.20;155965.16;4986976;28;20541;-78
2023/04/23 09:30:08;;;;;;;1.60;1.10;;;;;;;18.00;70.86;155988.59;4989166;28;20470;-78
2023/04/23 09:32:36;;;;;;;1.50;1.20;;;;;;;18.00;66.01;155988.59;4988394;28;20862;-78
2023/04/23 09:35:03;;;;;;;2.00;1.20;;;;;;;18.01;71.20;155991.22;4988016;28;20457;-78
2023/04/23 09:37:30;;;;;;;1.60;1.10;;;;;;;18.15;74.81;156027.69;4985072;28;20583;-78
2023/04/23 09:39:59;;;;;;;1.70;1.10;;;;;;;18.24;74.89;156051.09;4990567;28;20495;-78
2023/04/23 09:42:27;;;;;;;1.70;1.20;;;;;;;18.17;62.63;156032.88;5002700;28;20469;-78
2023/04/23 09:44:57;;;;;;;2.60;1.13;;;;;;;18.23;62.28;156047.22;4984888;28;20477;-78
2023/04/23 09:47:24;;;;;;;1.50;1.00;;;;;;;18.36;72.09;156081.06;5001031;28;20555;-78
2023/04/23 09:49:51;;;;;;;1.37;1.20;;;;;;;18.29;66.99;156061.53;5002942;28;20512;-78
2023/04/23 09:52:18;;;;;;;1.40;1.10;;;;;;;18.25;68.51;156053.72;4985507;28;20839;-78
2023/04/23 09:54:45;;;;;;;1.30;1.10;;;;;;;18.24;75.06;156051.09;4988231;28;20477;-78
2023/04/23 09:57:12;;;;;;;1.90;1.40;;;;;;;18.11;66.68;156017.25;4986347;28;20481;-78
2023/04/23 09:59:39;;;;;;;1.60;1.27;;;;;;;18.11;68.91;156017.25;4988086;28;20512;-78
2023/04/23 10:02:08;;;;;;;1.93;1.30;;;;;;;18.03;64.29;155995.16;4974483;28;21048;-78
2023/04/23 10:04:35;;;;;;;1.53;1.13;;;;;;;17.91;62.95;155965.16;5001293;28;20453;-78
2023/04/23 10:07:03;;;;;;;1.20;1.00;;;;;;;17.91;63.90;155963.88;4987398;28;20462;-78
2023/04/23 10:09:30;;;;;;;2.03;1.30;;;;;;;17.97;64.82;155980.81;4984278;28;20465;-78
2023/04/23 10:15:26;;;;;;;1.50;1.00;;;;;;;17.56;62.92;155875.34;4985225;28;20449;-78
2023/04/23 10:17:55;;;;;;;1.30;0.90;;;;;;;17.62;64.55;155890.97;5001884;28;20450;-78
2023/04/23 10:20:23;;;;;;;1.27;0.80;;;;;;;17.79;61.37;155933.91;4982550;28;20992;-77
2023/04/23 10:22:50;;;;;;;1.87;1.10;;;;;;;17.94;61.21;155971.69;4986160;28;20462;-77
2023/04/23 10:25:20;;;;;;;1.70;1.20;;;;;;;17.73;63.37;155918.31;4996278;28;20489;-76
2023/04/23 10:27:49;;;;;;;1.63;1.20;;;;;;;17.31;63.88;155808.91;4985731;28;20843;-77
2023/04/23 10:30:18;;;;;;;2.07;1.30;;;;;;;17.11;65.19;155756.84;4984293;28;20462;-77
2023/04/23 10:32:46;;;;;;;2.10;1.20;;;;;;;17.05;64.90;155743.81;4985428;28;20453;-77
2023/04/23 10:35:14;;;;;;;1.30;0.90;;;;;;;17.15;64.06;155768.59;4984350;28;20457;-77
2023/04/23 10:37:41;;;;;;;2.90;1.20;;;;;;;17.15;64.59;155767.28;4985017;28;20457;-77
2023/04/23 10:40:12;;;;;;;1.40;1.10;;;;;;;17.15;66.20;155767.28;4984440;28;20483;-77
2023/04/23 10:42:39;;;;;;;1.63;1.00;;;;;;;17.20;66.06;155780.28;4984657;28;20941;-77
2023/04/23 10:45:13;;;;;;;1.60;1.13;;;;;;;17.29;66.25;155803.72;4985655;28;20481;-89
2023/04/23 10:47:42;;;;;;;1.47;1.30;;;;;;;17.53;64.13;155866.22;4988013;28;20449;-88
2023/04/23 10:50:22;;;;;;;1.67;1.40;;;;;;;17.73;66.85;155918.31;4987840;28;20472;-88
2023/04/23 10:52:52;;;;;;;1.60;1.20;;;;;;;17.92;62.44;155966.50;4990302;28;20445;-88
2023/04/23 10:55:20;;;;;;;1.47;1.00;;;;;;;17.92;60.04;155966.50;4988780;28;20513;-88
2023/04/23 10:57:57;;;;;;;2.70;1.20;;;;;;;17.53;61.71;155867.53;4987863;28;20461;-87
2023/04/23 11:00:26;;;;;;;1.37;1.10;;;;;;;17.63;62.01;155892.28;5002570;28;20461;-88
2023/04/23 11:02:52;;;;;;;1.53;1.20;;;;;;;17.78;69.97;155931.31;5007220;28;20464;-88
2023/04/23 11:05:22;;;;;;;1.53;1.20;;;;;;;17.82;63.05;155941.72;4994887;28;20765;-87
2023/04/23 11:08:05;;;;;;;1.63;1.10;;;;;;;18.14;64.98;156023.75;5002997;28;20472;-77
2023/04/23 11:10:32;;;;;;;1.50;1.00;;;;;;;18.20;59.53;156040.69;4980718;28;20890;-78
2023/04/23 11:16:43;;;;;;;1.23;1.10;;;;;;;18.31;59.06;156068.06;4983263;28;20446;-78
2023/04/23 11:19:11;;;;;;;2.10;1.00;;;;;;;18.32;59.63;156070.63;4982720;28;20450;-78
2023/04/23 11:22:01;;;;;;;1.30;0.87;;;;;;;18.35;62.78;156077.19;4982845;28;20464;-78
2023/04/23 11:24:29;;;;;;;1.53;1.10;;;;;;;18.31;59.56;156066.75;4981962;28;20829;-78
2023/04/23 11:26:56;;;;;;;1.20;0.90;;;;;;;18.38;61.27;156084.97;4967198;28;20485;-78
2023/04/23 11:29:24;;;;;;;2.00;1.20;;;;;;;18.50;66.50;156116.31;4975657;28;20964;-78
2023/04/23 11:31:51;;;;;;;1.50;1.20;;;;;;;18.52;65.28;156122.81;4998396;28;20976;-78
2023/04/23 11:34:18;;;;;;;1.90;1.43;;;;;;;18.49;57.35;156114.97;4982062;28;20456;-78